sensor_id;sensor_type;location;lat;lon;timestamp;P1;durP1;ratioP1;P2;durP2;ratioP2
72590;SDS011;60625;51.212;5.952;2022-12-07T00:00:40;17.00;;;9.60;;
72590;SDS011;60625;51.212;5.952;2022-12-07T00:05:40;17.70;;;9.90;;
72590;SDS011;60625;51.212;5.952;2022-12-07T00:10:44;17.70;;;9.20;;
72590;SDS011;60625;51.212;5.952;2022-12-07T00:15:45;15.60;;;8.50;;
72590;SDS011;60625;51.212;5.952;2022-12-07T00:20:45;15.60;;;9.10;;
72590;SDS011;60625;51.212;5.952;2022-12-07T00:25:46;16.50;;;8.60;;
72590;SDS011;60625;51.212;5.952;2022-12-07T00:30:48;15.90;;;9.30;;
72590;SDS011;60625;51.212;5.952;2022-12-07T00:35:55;15.70;;;9.90;;
72590;SDS011;60625;51.212;5.952;2022-12-07T00:40:58;16.90;;;8.60;;
72590;SDS011;60625;51.212;5.952;2022-12-07T00:46:00;20.80;;;11.50;;
72590;SDS011;60625;51.212;5.952;2022-12-07T00:51:01;19.80;;;10.70;;
72590;SDS011;60625;51.212;5.952;2022-12-07T00:56:11;17.70;;;8.80;;
72590;SDS011;60625;51.212;5.952;2022-12-07T01:01:13;18.30;;;10.00;;
72590;SDS011;60625;51.212;5.952;2022-12-07T01:06:15;14.00;;;9.10;;
72590;SDS011;60625;51.212;5.952;2022-12-07T01:11:19;14.80;;;9.10;;
72590;SDS011;60625;51.212;5.952;2022-12-07T01:16:24;15.60;;;9.50;;
72590;SDS011;60625;51.212;5.952;2022-12-07T01:21:32;15.80;;;9.30;;
72590;SDS011;60625;51.212;5.952;2022-12-07T01:26:36;13.30;;;8.90;;
72590;SDS011;60625;51.212;5.952;2022-12-07T01:31:38;14.90;;;8.80;;
72590;SDS011;60625;51.212;5.952;2022-12-07T01:36:38;17.60;;;9.50;;
72590;SDS011;60625;51.212;5.952;2022-12-07T01:41:40;17.30;;;10.00;;
72590;SDS011;60625;51.212;5.952;2022-12-07T01:46:48;16.10;;;9.80;;
72590;SDS011;60625;51.212;5.952;2022-12-07T01:52:00;18.60;;;10.00;;
72590;SDS011;60625;51.212;5.952;2022-12-07T01:57:22;15.60;;;9.80;;
72590;SDS011;60625;51.212;5.952;2022-12-07T02:02:27;17.60;;;10.10;;
72590;SDS011;60625;51.212;5.952;2022-12-07T02:07:34;17.80;;;10.40;;
72590;SDS011;60625;51.212;5.952;2022-12-07T02:12:36;21.90;;;10.80;;
72590;SDS011;60625;51.212;5.952;2022-12-07T02:34:39;20.10;;;11.10;;
72590;SDS011;60625;51.212;5.952;2022-12-07T02:39:44;22.70;;;12.50;;
72590;SDS011;60625;51.212;5.952;2022-12-07T02:44:50;21.50;;;12.30;;
72590;SDS011;60625;51.212;5.952;2022-12-07T02:49:52;19.50;;;10.60;;
72590;SDS011;60625;51.212;5.952;2022-12-07T02:54:52;17.30;;;11.00;;
72590;SDS011;60625;51.212;5.952;2022-12-07T03:00:09;20.20;;;12.40;;
72590;SDS011;60625;51.212;5.952;2022-12-07T03:05:21;19.10;;;11.80;;
72590;SDS011;60625;51.212;5.952;2022-12-07T03:21:39;21.90;;;12.50;;
72590;SDS011;60625;51.212;5.952;2022-12-07T03:26:46;18.40;;;11.50;;
72590;SDS011;60625;51.212;5.952;2022-12-07T03:32:03;18.60;;;11.80;;
72590;SDS011;60625;51.212;5.952;2022-12-07T03:37:37;17.60;;;10.90;;
72590;SDS011;60625;51.212;5.952;2022-12-07T03:42:50;18.50;;;10.80;;
72590;SDS011;60625;51.212;5.952;2022-12-07T03:48:22;20.20;;;12.00;;
72590;SDS011;60625;51.212;5.952;2022-12-07T03:53:44;22.60;;;13.30;;
72590;SDS011;60625;51.212;5.952;2022-12-07T03:58:49;16.60;;;10.70;;
72590;SDS011;60625;51.212;5.952;2022-12-07T04:03:50;20.20;;;12.20;;
72590;SDS011;60625;51.212;5.952;2022-12-07T04:08:51;17.70;;;11.20;;
72590;SDS011;60625;51.212;5.952;2022-12-07T04:13:53;16.40;;;10.90;;
72590;SDS011;60625;51.212;5.952;2022-12-07T04:19:13;18.70;;;10.40;;
72590;SDS011;60625;51.212;5.952;2022-12-07T04:24:15;18.00;;;10.50;;
72590;SDS011;60625;51.212;5.952;2022-12-07T04:29:16;19.10;;;11.50;;
72590;SDS011;60625;51.212;5.952;2022-12-07T04:34:18;15.80;;;9.80;;
72590;SDS011;60625;51.212;5.952;2022-12-07T04:39:30;15.20;;;9.80;;
72590;SDS011;60625;51.212;5.952;2022-12-07T04:44:31;16.80;;;9.80;;
72590;SDS011;60625;51.212;5.952;2022-12-07T04:49:32;16.00;;;9.10;;
72590;SDS011;60625;51.212;5.952;2022-12-07T04:54:33;20.00;;;9.10;;
72590;SDS011;60625;51.212;5.952;2022-12-07T04:59:33;14.70;;;8.70;;
72590;SDS011;60625;51.212;5.952;2022-12-07T05:04:34;16.10;;;8.80;;
72590;SDS011;60625;51.212;5.952;2022-12-07T05:09:35;14.90;;;7.90;;
72590;SDS011;60625;51.212;5.952;2022-12-07T05:14:36;16.20;;;7.80;;
72590;SDS011;60625;51.212;5.952;2022-12-07T05:19:39;14.90;;;7.70;;
72590;SDS011;60625;51.212;5.952;2022-12-07T05:24:40;16.10;;;8.50;;
72590;SDS011;60625;51.212;5.952;2022-12-07T05:29:42;15.80;;;8.00;;
72590;SDS011;60625;51.212;5.952;2022-12-07T05:34:43;12.60;;;7.30;;
72590;SDS011;60625;51.212;5.952;2022-12-07T05:39:43;12.90;;;6.80;;
72590;SDS011;60625;51.212;5.952;2022-12-07T05:44:45;15.60;;;6.90;;
72590;SDS011;60625;51.212;5.952;2022-12-07T05:49:46;14.10;;;7.40;;
72590;SDS011;60625;51.212;5.952;2022-12-07T05:54:47;17.10;;;7.20;;
72590;SDS011;60625;51.212;5.952;2022-12-07T05:59:47;17.80;;;7.80;;
72590;SDS011;60625;51.212;5.952;2022-12-07T06:04:48;14.20;;;7.90;;
72590;SDS011;60625;51.212;5.952;2022-12-07T06:09:48;13.00;;;7.50;;
72590;SDS011;60625;51.212;5.952;2022-12-07T06:14:49;14.10;;;7.30;;
72590;SDS011;60625;51.212;5.952;2022-12-07T06:19:49;13.80;;;8.20;;
72590;SDS011;60625;51.212;5.952;2022-12-07T06:24:50;14.40;;;8.70;;
72590;SDS011;60625;51.212;5.952;2022-12-07T06:29:50;18.50;;;9.30;;
72590;SDS011;60625;51.212;5.952;2022-12-07T06:34:51;18.60;;;8.90;;
72590;SDS011;60625;51.212;5.952;2022-12-07T06:39:51;14.70;;;8.30;;
72590;SDS011;60625;51.212;5.952;2022-12-07T06:44:53;14.60;;;8.70;;
72590;SDS011;60625;51.212;5.952;2022-12-07T06:49:53;16.20;;;9.30;;
72590;SDS011;60625;51.212;5.952;2022-12-07T06:54:54;17.40;;;8.60;;
72590;SDS011;60625;51.212;5.952;2022-12-07T06:59:54;16.60;;;9.00;;
72590;SDS011;60625;51.212;5.952;2022-12-07T07:04:55;16.50;;;9.50;;
72590;SDS011;60625;51.212;5.952;2022-12-07T07:09:55;19.00;;;10.00;;
72590;SDS011;60625;51.212;5.952;2022-12-07T07:14:56;22.50;;;12.20;;
72590;SDS011;60625;51.212;5.952;2022-12-07T07:19:56;22.20;;;12.10;;
72590;SDS011;60625;51.212;5.952;2022-12-07T07:24:57;19.40;;;11.70;;
72590;SDS011;60625;51.212;5.952;2022-12-07T07:29:57;21.80;;;11.60;;
72590;SDS011;60625;51.212;5.952;2022-12-07T07:34:58;22.10;;;11.30;;
72590;SDS011;60625;51.212;5.952;2022-12-07T07:39:58;25.20;;;11.60;;
72590;SDS011;60625;51.212;5.952;2022-12-07T07:44:59;16.70;;;10.10;;
72590;SDS011;60625;51.212;5.952;2022-12-07T07:50:00;21.30;;;10.90;;
72590;SDS011;60625;51.212;5.952;2022-12-07T07:55:01;21.10;;;12.00;;
72590;SDS011;60625;51.212;5.952;2022-12-07T08:00:15;20.10;;;11.00;;
72590;SDS011;60625;51.212;5.952;2022-12-07T08:05:17;16.70;;;9.10;;
72590;SDS011;60625;51.212;5.952;2022-12-07T08:10:22;20.00;;;9.20;;
72590;SDS011;60625;51.212;5.952;2022-12-07T08:15:22;17.90;;;9.50;;
72590;SDS011;60625;51.212;5.952;2022-12-07T08:20:23;13.60;;;7.90;;
72590;SDS011;60625;51.212;5.952;2022-12-07T08:25:25;15.20;;;8.90;;
72590;SDS011;60625;51.212;5.952;2022-12-07T08:30:26;24.10;;;12.90;;
72590;SDS011;60625;51.212;5.952;2022-12-07T08:35:28;21.20;;;11.60;;
72590;SDS011;60625;51.212;5.952;2022-12-07T08:40:30;21.70;;;11.90;;
72590;SDS011;60625;51.212;5.952;2022-12-07T08:45:31;20.50;;;11.50;;
72590;SDS011;60625;51.212;5.952;2022-12-07T08:50:36;28.90;;;13.20;;
72590;SDS011;60625;51.212;5.952;2022-12-07T08:55:37;27.90;;;12.50;;
72590;SDS011;60625;51.212;5.952;2022-12-07T09:00:38;25.70;;;12.00;;
72590;SDS011;60625;51.212;5.952;2022-12-07T09:05:39;21.50;;;10.80;;
72590;SDS011;60625;51.212;5.952;2022-12-07T09:10:40;19.80;;;10.00;;
72590;SDS011;60625;51.212;5.952;2022-12-07T09:15:41;19.20;;;10.70;;
72590;SDS011;60625;51.212;5.952;2022-12-07T09:20:42;23.00;;;10.90;;
72590;SDS011;60625;51.212;5.952;2022-12-07T09:25:43;18.90;;;10.20;;
72590;SDS011;60625;51.212;5.952;2022-12-07T09:30:48;20.00;;;11.70;;
72590;SDS011;60625;51.212;5.952;2022-12-07T09:35:52;23.20;;;10.90;;
72590;SDS011;60625;51.212;5.952;2022-12-07T09:40:54;17.30;;;9.70;;
72590;SDS011;60625;51.212;5.952;2022-12-07T09:45:56;19.00;;;10.70;;
72590;SDS011;60625;51.212;5.952;2022-12-07T09:50:59;17.80;;;9.90;;
72590;SDS011;60625;51.212;5.952;2022-12-07T09:56:01;21.30;;;10.00;;
72590;SDS011;60625;51.212;5.952;2022-12-07T10:06:13;19.10;;;10.30;;
72590;SDS011;60625;51.212;5.952;2022-12-07T10:11:14;14.60;;;8.70;;
72590;SDS011;60625;51.212;5.952;2022-12-07T10:16:39;17.80;;;8.70;;
72590;SDS011;60625;51.212;5.952;2022-12-07T10:22:19;15.40;;;7.60;;
72590;SDS011;60625;51.212;5.952;2022-12-07T10:27:22;19.80;;;9.20;;
72590;SDS011;60625;51.212;5.952;2022-12-07T10:32:35;15.10;;;7.90;;
72590;SDS011;60625;51.212;5.952;2022-12-07T10:37:40;16.30;;;8.60;;
72590;SDS011;60625;51.212;5.952;2022-12-07T10:43:01;14.80;;;7.70;;
72590;SDS011;60625;51.212;5.952;2022-12-07T10:48:17;13.50;;;7.30;;
72590;SDS011;60625;51.212;5.952;2022-12-07T10:53:41;12.80;;;6.30;;
72590;SDS011;60625;51.212;5.952;2022-12-07T11:05:19;13.10;;;6.40;;
72590;SDS011;60625;51.212;5.952;2022-12-07T11:15:16;11.50;;;5.20;;
72590;SDS011;60625;51.212;5.952;2022-12-07T11:20:34;8.40;;;3.60;;
72590;SDS011;60625;51.212;5.952;2022-12-07T11:41:54;11.00;;;4.60;;
72590;SDS011;60625;51.212;5.952;2022-12-07T11:52:54;13.10;;;4.40;;
72590;SDS011;60625;51.212;5.952;2022-12-07T11:58:09;7.80;;;3.30;;
72590;SDS011;60625;51.212;5.952;2022-12-07T12:03:31;11.70;;;4.20;;
72590;SDS011;60625;51.212;5.952;2022-12-07T12:09:15;10.60;;;3.20;;
72590;SDS011;60625;51.212;5.952;2022-12-07T12:20:21;15.20;;;3.70;;
72590;SDS011;60625;51.212;5.952;2022-12-07T12:25:45;9.10;;;2.80;;
72590;SDS011;60625;51.212;5.952;2022-12-07T12:31:14;11.80;;;3.10;;
72590;SDS011;60625;51.212;5.952;2022-12-07T12:36:26;10.60;;;2.80;;
72590;SDS011;60625;51.212;5.952;2022-12-07T12:57:26;10.20;;;3.90;;
72590;SDS011;60625;51.212;5.952;2022-12-07T13:02:47;12.60;;;3.90;;
72590;SDS011;60625;51.212;5.952;2022-12-07T13:08:11;7.60;;;3.40;;
72590;SDS011;60625;51.212;5.952;2022-12-07T13:28:40;12.30;;;2.50;;
72590;SDS011;60625;51.212;5.952;2022-12-07T13:33:48;9.40;;;2.40;;
72590;SDS011;60625;51.212;5.952;2022-12-07T13:38:52;7.10;;;2.30;;
72590;SDS011;60625;51.212;5.952;2022-12-07T13:44:33;6.30;;;2.40;;
72590;SDS011;60625;51.212;5.952;2022-12-07T13:49:47;7.90;;;2.00;;
72590;SDS011;60625;51.212;5.952;2022-12-07T13:54:57;8.70;;;2.30;;
72590;SDS011;60625;51.212;5.952;2022-12-07T14:00:18;7.40;;;2.30;;
72590;SDS011;60625;51.212;5.952;2022-12-07T14:22:30;13.90;;;3.60;;
72590;SDS011;60625;51.212;5.952;2022-12-07T14:27:35;8.10;;;3.70;;
72590;SDS011;60625;51.212;5.952;2022-12-07T14:32:37;10.40;;;3.70;;
72590;SDS011;60625;51.212;5.952;2022-12-07T14:37:40;10.10;;;3.40;;
72590;SDS011;60625;51.212;5.952;2022-12-07T14:42:47;12.50;;;3.60;;
72590;SDS011;60625;51.212;5.952;2022-12-07T14:47:53;13.30;;;4.20;;
72590;SDS011;60625;51.212;5.952;2022-12-07T14:52:56;7.80;;;2.90;;
72590;SDS011;60625;51.212;5.952;2022-12-07T14:57:59;7.30;;;3.80;;
72590;SDS011;60625;51.212;5.952;2022-12-07T15:03:00;10.90;;;4.20;;
72590;SDS011;60625;51.212;5.952;2022-12-07T15:08:00;13.10;;;4.80;;
72590;SDS011;60625;51.212;5.952;2022-12-07T15:13:02;17.70;;;6.00;;
72590;SDS011;60625;51.212;5.952;2022-12-07T15:18:22;13.80;;;5.80;;
72590;SDS011;60625;51.212;5.952;2022-12-07T15:23:23;14.00;;;5.20;;
72590;SDS011;60625;51.212;5.952;2022-12-07T15:28:24;10.30;;;4.70;;
72590;SDS011;60625;51.212;5.952;2022-12-07T15:33:24;18.70;;;6.00;;
72590;SDS011;60625;51.212;5.952;2022-12-07T15:38:25;10.60;;;4.10;;
72590;SDS011;60625;51.212;5.952;2022-12-07T15:43:27;13.90;;;5.50;;
72590;SDS011;60625;51.212;5.952;2022-12-07T15:48:47;8.00;;;4.70;;
72590;SDS011;60625;51.212;5.952;2022-12-07T15:53:48;13.00;;;5.60;;
72590;SDS011;60625;51.212;5.952;2022-12-07T15:58:49;12.80;;;6.10;;
72590;SDS011;60625;51.212;5.952;2022-12-07T16:03:52;14.00;;;5.60;;
72590;SDS011;60625;51.212;5.952;2022-12-07T16:08:53;11.90;;;5.40;;
72590;SDS011;60625;51.212;5.952;2022-12-07T16:13:53;9.70;;;5.60;;
72590;SDS011;60625;51.212;5.952;2022-12-07T16:18:54;11.00;;;4.60;;
72590;SDS011;60625;51.212;5.952;2022-12-07T16:23:57;11.70;;;4.90;;
72590;SDS011;60625;51.212;5.952;2022-12-07T16:28:59;13.60;;;5.40;;
72590;SDS011;60625;51.212;5.952;2022-12-07T16:34:00;13.70;;;6.30;;
72590;SDS011;60625;51.212;5.952;2022-12-07T16:39:01;16.60;;;7.20;;
72590;SDS011;60625;51.212;5.952;2022-12-07T16:44:07;12.10;;;6.60;;
72590;SDS011;60625;51.212;5.952;2022-12-07T16:49:12;11.60;;;5.90;;
72590;SDS011;60625;51.212;5.952;2022-12-07T16:54:13;14.30;;;7.40;;
72590;SDS011;60625;51.212;5.952;2022-12-07T16:59:14;16.50;;;8.30;;
72590;SDS011;60625;51.212;5.952;2022-12-07T17:04:15;18.50;;;8.70;;
72590;SDS011;60625;51.212;5.952;2022-12-07T17:09:15;14.30;;;8.20;;
72590;SDS011;60625;51.212;5.952;2022-12-07T17:14:15;17.10;;;9.90;;
72590;SDS011;60625;51.212;5.952;2022-12-07T17:19:34;19.90;;;8.60;;
72590;SDS011;60625;51.212;5.952;2022-12-07T17:24:35;17.30;;;8.50;;
72590;SDS011;60625;51.212;5.952;2022-12-07T17:29:36;19.10;;;9.40;;
72590;SDS011;60625;51.212;5.952;2022-12-07T17:34:37;18.80;;;8.30;;
72590;SDS011;60625;51.212;5.952;2022-12-07T17:39:37;17.30;;;8.30;;
72590;SDS011;60625;51.212;5.952;2022-12-07T17:44:37;16.00;;;9.00;;
72590;SDS011;60625;51.212;5.952;2022-12-07T17:49:40;18.70;;;8.40;;
72590;SDS011;60625;51.212;5.952;2022-12-07T17:54:40;16.40;;;9.20;;
72590;SDS011;60625;51.212;5.952;2022-12-07T17:59:41;17.30;;;9.00;;
72590;SDS011;60625;51.212;5.952;2022-12-07T18:04:45;17.10;;;9.00;;
72590;SDS011;60625;51.212;5.952;2022-12-07T18:09:47;17.90;;;9.00;;
72590;SDS011;60625;51.212;5.952;2022-12-07T18:14:47;13.90;;;8.20;;
72590;SDS011;60625;51.212;5.952;2022-12-07T18:19:50;14.30;;;8.10;;
72590;SDS011;60625;51.212;5.952;2022-12-07T18:24:53;17.40;;;9.10;;
72590;SDS011;60625;51.212;5.952;2022-12-07T18:29:54;16.90;;;8.20;;
72590;SDS011;60625;51.212;5.952;2022-12-07T18:34:55;11.30;;;4.70;;
72590;SDS011;60625;51.212;5.952;2022-12-07T18:39:55;16.90;;;6.60;;
72590;SDS011;60625;51.212;5.952;2022-12-07T18:44:56;16.00;;;7.90;;
72590;SDS011;60625;51.212;5.952;2022-12-07T18:49:56;16.20;;;6.80;;
72590;SDS011;60625;51.212;5.952;2022-12-07T18:54:57;12.90;;;7.50;;
72590;SDS011;60625;51.212;5.952;2022-12-07T18:59:58;14.00;;;7.10;;
72590;SDS011;60625;51.212;5.952;2022-12-07T19:04:58;16.70;;;7.80;;
72590;SDS011;60625;51.212;5.952;2022-12-07T19:10:02;14.50;;;8.60;;
72590;SDS011;60625;51.212;5.952;2022-12-07T19:15:04;19.80;;;8.10;;
72590;SDS011;60625;51.212;5.952;2022-12-07T19:20:11;16.50;;;8.10;;
72590;SDS011;60625;51.212;5.952;2022-12-07T19:25:13;15.20;;;7.80;;
72590;SDS011;60625;51.212;5.952;2022-12-07T19:30:14;17.20;;;8.20;;
72590;SDS011;60625;51.212;5.952;2022-12-07T19:35:15;16.00;;;8.70;;
72590;SDS011;60625;51.212;5.952;2022-12-07T19:40:15;16.30;;;8.70;;
72590;SDS011;60625;51.212;5.952;2022-12-07T19:45:16;21.90;;;9.00;;
72590;SDS011;60625;51.212;5.952;2022-12-07T19:50:22;19.60;;;8.60;;
72590;SDS011;60625;51.212;5.952;2022-12-07T19:55:22;17.40;;;9.10;;
72590;SDS011;60625;51.212;5.952;2022-12-07T20:00:23;15.40;;;8.70;;
72590;SDS011;60625;51.212;5.952;2022-12-07T20:05:24;16.90;;;9.40;;
72590;SDS011;60625;51.212;5.952;2022-12-07T20:10:26;15.30;;;9.80;;
72590;SDS011;60625;51.212;5.952;2022-12-07T20:15:26;14.40;;;7.80;;
72590;SDS011;60625;51.212;5.952;2022-12-07T20:20:27;16.20;;;9.20;;
72590;SDS011;60625;51.212;5.952;2022-12-07T20:25:34;17.60;;;8.90;;
72590;SDS011;60625;51.212;5.952;2022-12-07T20:30:36;16.70;;;8.60;;
72590;SDS011;60625;51.212;5.952;2022-12-07T20:35:37;15.00;;;8.90;;
72590;SDS011;60625;51.212;5.952;2022-12-07T20:40:47;15.90;;;8.70;;
72590;SDS011;60625;51.212;5.952;2022-12-07T20:45:49;17.50;;;8.90;;
72590;SDS011;60625;51.212;5.952;2022-12-07T20:50:49;15.70;;;8.50;;
72590;SDS011;60625;51.212;5.952;2022-12-07T20:55:50;14.20;;;7.80;;
72590;SDS011;60625;51.212;5.952;2022-12-07T21:00:50;17.10;;;7.50;;
72590;SDS011;60625;51.212;5.952;2022-12-07T21:05:51;14.60;;;7.70;;
72590;SDS011;60625;51.212;5.952;2022-12-07T21:10:51;16.40;;;8.50;;
72590;SDS011;60625;51.212;5.952;2022-12-07T21:15:52;14.30;;;9.10;;
72590;SDS011;60625;51.212;5.952;2022-12-07T21:20:54;16.10;;;9.10;;
72590;SDS011;60625;51.212;5.952;2022-12-07T21:25:54;13.40;;;8.70;;
72590;SDS011;60625;51.212;5.952;2022-12-07T21:30:56;16.30;;;9.00;;
72590;SDS011;60625;51.212;5.952;2022-12-07T21:35:58;13.60;;;8.70;;
72590;SDS011;60625;51.212;5.952;2022-12-07T21:40:58;14.20;;;7.90;;
72590;SDS011;60625;51.212;5.952;2022-12-07T21:45:59;15.00;;;6.60;;
72590;SDS011;60625;51.212;5.952;2022-12-07T21:51:07;14.70;;;7.00;;
72590;SDS011;60625;51.212;5.952;2022-12-07T21:56:20;14.50;;;7.20;;
72590;SDS011;60625;51.212;5.952;2022-12-07T22:01:26;14.70;;;7.60;;
72590;SDS011;60625;51.212;5.952;2022-12-07T22:06:28;15.10;;;7.10;;
72590;SDS011;60625;51.212;5.952;2022-12-07T22:11:29;12.40;;;7.40;;
72590;SDS011;60625;51.212;5.952;2022-12-07T22:16:30;12.40;;;6.80;;
72590;SDS011;60625;51.212;5.952;2022-12-07T22:21:32;12.00;;;6.50;;
72590;SDS011;60625;51.212;5.952;2022-12-07T22:26:33;11.20;;;6.90;;
72590;SDS011;60625;51.212;5.952;2022-12-07T22:31:34;16.70;;;7.60;;
72590;SDS011;60625;51.212;5.952;2022-12-07T22:36:38;11.50;;;6.40;;
72590;SDS011;60625;51.212;5.952;2022-12-07T22:41:39;12.20;;;6.90;;
72590;SDS011;60625;51.212;5.952;2022-12-07T22:46:40;13.30;;;7.00;;
72590;SDS011;60625;51.212;5.952;2022-12-07T22:51:41;16.40;;;8.60;;
72590;SDS011;60625;51.212;5.952;2022-12-07T22:56:44;11.30;;;7.00;;
72590;SDS011;60625;51.212;5.952;2022-12-07T23:01:45;12.80;;;7.70;;
72590;SDS011;60625;51.212;5.952;2022-12-07T23:06:46;14.90;;;7.40;;
72590;SDS011;60625;51.212;5.952;2022-12-07T23:11:46;15.60;;;7.60;;
72590;SDS011;60625;51.212;5.952;2022-12-07T23:17:07;15.60;;;8.10;;
72590;SDS011;60625;51.212;5.952;2022-12-07T23:22:09;14.10;;;8.80;;
72590;SDS011;60625;51.212;5.952;2022-12-07T23:27:09;14.50;;;7.80;;
72590;SDS011;60625;51.212;5.952;2022-12-07T23:32:10;20.50;;;10.90;;
72590;SDS011;60625;51.212;5.952;2022-12-07T23:37:11;22.90;;;10.70;;
72590;SDS011;60625;51.212;5.952;2022-12-07T23:42:11;21.20;;;11.10;;
72590;SDS011;60625;51.212;5.952;2022-12-07T23:47:11;23.80;;;13.30;;
72590;SDS011;60625;51.212;5.952;2022-12-07T23:52:12;23.80;;;13.80;;
72590;SDS011;60625;51.212;5.952;2022-12-07T23:57:12;24.70;;;13.10;;
